createdAt,value
2022-10-11T00:01:27.150Z,5.52
2022-10-11T00:03:53.518Z,5.50
2022-10-11T00:06:19.862Z,5.56
2022-10-11T00:08:46.336Z,5.55
2022-10-11T00:11:12.802Z,5.41
2022-10-11T00:13:39.191Z,5.51
2022-10-11T00:16:10.909Z,5.32
2022-10-11T00:18:37.747Z,5.46
2022-10-11T00:21:07.265Z,5.59
2022-10-11T00:23:34.523Z,5.67
2022-10-11T00:26:03.999Z,5.62
2022-10-11T00:28:31.156Z,5.56
2022-10-11T00:30:57.822Z,5.58
2022-10-11T00:33:24.476Z,5.70
2022-10-11T00:35:50.819Z,5.51
2022-10-11T00:38:18.016Z,5.38
2022-10-11T00:40:45.669Z,5.31
2022-10-11T00:43:20.248Z,5.25
2022-10-11T00:45:55.741Z,5.39
2022-10-11T00:48:33.396Z,5.16
2022-10-11T00:51:03.012Z,5.56
2022-10-11T00:53:32.026Z,5.40
2022-10-11T00:56:08.468Z,5.40
2022-10-11T00:58:36.967Z,5.35
2022-10-11T01:01:03.571Z,5.09
2022-10-11T01:03:32.305Z,5.33
2022-10-11T01:05:58.771Z,5.06
2022-10-11T01:08:25.737Z,5.39
2022-10-11T01:10:52.359Z,5.28
2022-10-11T01:13:44.676Z,5.33
2022-10-11T01:16:29.295Z,5.17
2022-10-11T01:19:39.837Z,5.32
2022-10-11T01:22:28.591Z,5.26
2022-10-11T01:25:18.683Z,5.35
2022-10-11T01:28:12.710Z,5.38
2022-10-11T01:30:40.131Z,5.26
2022-10-11T01:33:32.119Z,4.83
2022-10-11T01:36:10.379Z,5.22
2022-10-11T01:38:46.669Z,5.28
2022-10-11T01:41:19.084Z,5.18
2022-10-11T01:43:46.773Z,5.43
2022-10-11T01:46:14.544Z,5.46
2022-10-11T01:48:52.527Z,5.28
2022-10-11T01:51:27.226Z,4.78
2022-10-11T01:54:04.315Z,5.13
2022-10-11T01:57:10.771Z,5.19
2022-10-11T01:59:54.437Z,5.10
2022-10-11T02:02:42.042Z,5.08
2022-10-11T02:05:28.426Z,5.13
2022-10-11T02:08:15.048Z,5.07
2022-10-11T02:11:07.267Z,4.94
2022-10-11T02:13:40.256Z,4.92
2022-10-11T02:16:11.576Z,4.94
2022-10-11T02:18:41.530Z,4.94
2022-10-11T02:21:12.160Z,5.08
2022-10-11T02:23:47.665Z,4.97
2022-10-11T02:26:15.003Z,4.86
2022-10-11T02:28:43.956Z,4.93
2022-10-11T02:31:11.869Z,4.70
2022-10-11T02:33:58.717Z,4.81
2022-10-11T02:36:36.239Z,4.79
2022-10-11T02:39:12.719Z,4.75
2022-10-11T02:41:40.763Z,4.76
2022-10-11T02:44:12.911Z,4.53
2022-10-11T02:46:40.899Z,4.65
2022-10-11T02:49:08.445Z,4.59
2022-10-11T02:51:36.378Z,4.82
2022-10-11T02:54:02.804Z,4.90
2022-10-11T02:56:29.145Z,5.05
2022-10-11T02:58:55.496Z,4.99
2022-10-11T03:01:21.954Z,4.87
2022-10-11T03:03:48.504Z,4.82
2022-10-11T03:06:14.963Z,4.61
2022-10-11T03:08:41.300Z,4.97
2022-10-11T03:11:07.733Z,5.01
2022-10-11T03:13:34.163Z,4.95
2022-10-11T03:16:03.504Z,4.89
2022-10-11T03:18:30.989Z,4.77
2022-10-11T03:20:57.387Z,4.85
2022-10-11T03:23:24.122Z,5.12
2022-10-11T03:25:51.907Z,4.71
2022-10-11T03:28:18.550Z,4.59
2022-10-11T03:30:48.135Z,4.84
2022-10-11T03:33:14.538Z,5.05
2022-10-11T03:35:40.958Z,5.14
2022-10-11T03:38:11.111Z,5.00
2022-10-11T03:40:39.240Z,5.06
2022-10-11T03:43:05.639Z,5.21
2022-10-11T03:45:31.968Z,5.04
2022-10-11T03:47:58.366Z,4.99
2022-10-11T03:50:24.826Z,4.96
2022-10-11T03:52:51.190Z,4.79
2022-10-11T03:55:17.740Z,4.68
2022-10-11T03:57:44.112Z,5.05
2022-10-11T04:00:10.823Z,5.06
2022-10-11T04:02:39.305Z,4.99
2022-10-11T04:05:06.697Z,5.04
2022-10-11T04:07:33.368Z,5.03
2022-10-11T04:09:59.887Z,4.97
2022-10-11T04:12:26.248Z,4.94
2022-10-11T04:14:52.603Z,4.79
2022-10-11T04:17:18.963Z,4.82
2022-10-11T04:19:45.348Z,5.12
2022-10-11T04:22:11.751Z,4.92
2022-10-11T04:24:38.091Z,4.81
2022-10-11T04:27:04.464Z,4.78
2022-10-11T04:29:32.794Z,4.95
2022-10-11T04:31:59.582Z,4.88
2022-10-11T04:34:26.048Z,4.85
2022-10-11T04:36:52.420Z,4.91
2022-10-11T04:39:18.758Z,4.96
2022-10-11T04:41:45.259Z,4.94
2022-10-11T04:44:11.610Z,4.84
2022-10-11T04:46:37.942Z,4.92
2022-10-11T04:49:04.312Z,5.05
2022-10-11T04:51:30.903Z,4.98
2022-10-11T04:53:57.237Z,4.83
2022-10-11T04:56:23.631Z,5.03
2022-10-11T04:58:53.949Z,4.85
2022-10-11T05:01:21.083Z,4.88
2022-10-11T05:03:48.815Z,5.05
2022-10-11T05:06:15.182Z,4.84
2022-10-11T05:08:41.665Z,4.86
2022-10-11T05:11:11.461Z,4.99
2022-10-11T05:13:38.447Z,5.11
2022-10-11T05:16:10.420Z,4.98
2022-10-11T05:18:37.978Z,4.75
2022-10-11T05:21:17.958Z,5.02
2022-10-11T05:23:44.595Z,5.16
2022-10-11T05:26:11.105Z,5.00
2022-10-11T05:28:37.465Z,4.89
2022-10-11T05:31:04.257Z,5.04
2022-10-11T05:33:31.177Z,5.02
2022-10-11T05:35:57.559Z,5.04
2022-10-11T05:38:23.954Z,5.02
2022-10-11T05:40:50.613Z,5.00
2022-10-11T05:43:17.001Z,4.88
2022-10-11T05:45:44.676Z,4.99
2022-10-11T05:48:11.577Z,4.78
2022-10-11T05:50:38.471Z,4.96
2022-10-11T05:53:05.792Z,4.76
2022-10-11T05:55:37.623Z,5.07
2022-10-11T05:58:05.531Z,5.00
2022-10-11T06:00:32.282Z,5.03
2022-10-11T06:02:58.660Z,4.99
2022-10-11T06:05:25.052Z,5.02
2022-10-11T06:07:51.443Z,5.07
2022-10-11T06:10:17.922Z,5.07
2022-10-11T06:12:44.304Z,5.08
2022-10-11T06:15:11.565Z,5.08
2022-10-11T06:17:38.231Z,5.08
2022-10-11T06:20:05.175Z,5.06
2022-10-11T06:22:31.623Z,5.07
2022-10-11T06:24:57.965Z,5.12
2022-10-11T06:27:24.310Z,5.34
2022-10-11T06:29:50.658Z,5.35
2022-10-11T06:32:17.092Z,5.30
2022-10-11T06:34:43.426Z,5.35
2022-10-11T06:37:09.954Z,5.52
2022-10-11T06:39:36.320Z,5.38
2022-10-11T06:42:02.945Z,5.69
2022-10-11T06:44:29.453Z,5.79
2022-10-11T06:46:55.797Z,5.79
2022-10-11T06:49:23.467Z,5.97
2022-10-11T06:51:50.887Z,6.09
2022-10-11T06:54:17.228Z,6.12
2022-10-11T06:56:45.533Z,6.21
2022-10-11T06:59:13.320Z,6.31
2022-10-11T07:01:39.776Z,6.34
2022-10-11T07:04:06.158Z,6.20
2022-10-11T07:06:37.759Z,6.44
2022-10-11T07:09:04.905Z,6.50
2022-10-11T07:11:31.462Z,6.65
2022-10-11T07:14:07.729Z,6.71
2022-10-11T07:16:36.103Z,6.85
2022-10-11T07:19:05.369Z,7.14
2022-10-11T07:21:32.990Z,7.66
2022-10-11T07:24:00.013Z,8.17
2022-10-11T07:26:26.836Z,8.36
2022-10-11T07:28:53.530Z,8.53
2022-10-11T07:31:23.487Z,9.06
2022-10-11T07:33:50.211Z,9.38
2022-10-11T07:36:16.614Z,9.64
2022-10-11T07:38:44.485Z,9.94
2022-10-11T07:41:11.816Z,10.13
2022-10-11T07:43:38.776Z,10.48
2022-10-11T07:46:06.121Z,10.37
2022-10-11T07:48:34.892Z,10.59
2022-10-11T07:51:12.175Z,11.04
2022-10-11T07:53:43.332Z,11.21
2022-10-11T07:56:12.582Z,11.36
2022-10-11T07:58:40.529Z,11.57
2022-10-11T08:01:08.135Z,11.71
2022-10-11T08:03:35.161Z,12.40
2022-10-11T08:06:06.721Z,12.23
2022-10-11T08:08:33.546Z,12.14
2022-10-11T08:11:00.414Z,12.45
2022-10-11T08:13:27.282Z,13.36
2022-10-11T08:15:54.053Z,13.73
2022-10-11T08:18:20.548Z,14.06
2022-10-11T08:20:46.960Z,14.07
2022-10-11T08:23:13.761Z,14.68
2022-10-11T08:25:42.643Z,15.24
2022-10-11T08:28:10.114Z,15.21
2022-10-11T08:30:36.876Z,15.03
2022-10-11T08:33:08.264Z,15.15
2022-10-11T08:35:36.292Z,15.19
2022-10-11T08:38:02.771Z,15.97
2022-10-11T08:40:32.914Z,16.00
2022-10-11T08:43:08.172Z,15.90
2022-10-11T08:45:50.845Z,16.91
2022-10-11T08:48:22.332Z,16.21
2022-10-11T08:50:51.321Z,16.26
2022-10-11T08:53:44.977Z,16.92
2022-10-11T08:56:16.383Z,16.63
2022-10-11T08:58:49.546Z,16.42
2022-10-11T09:01:20.671Z,16.51
2022-10-11T09:03:49.229Z,16.93
2022-10-11T09:06:26.765Z,16.65
2022-10-11T09:09:07.390Z,16.63
2022-10-11T09:12:29.513Z,17.06
2022-10-11T09:14:58.623Z,17.29
2022-10-11T09:17:35.082Z,16.48
2022-10-11T09:20:22.718Z,17.09
2022-10-11T09:23:36.631Z,17.01
2022-10-11T09:26:09.883Z,17.65
2022-10-11T09:29:01.871Z,17.87
2022-10-11T09:31:29.549Z,17.66
2022-10-11T09:33:56.049Z,17.30
2022-10-11T09:36:27.343Z,17.78
2022-10-11T09:39:06.437Z,17.56
2022-10-11T09:41:58.824Z,18.17
2022-10-11T09:44:32.584Z,17.44
2022-10-11T09:46:59.447Z,17.55
2022-10-11T09:49:39.012Z,17.23
2022-10-11T09:52:11.196Z,16.81
2022-10-11T09:54:46.682Z,17.55
2022-10-11T09:57:28.136Z,17.17
2022-10-11T09:59:58.356Z,17.76
2022-10-11T10:02:25.004Z,17.93
2022-10-11T10:04:55.400Z,17.59
2022-10-11T10:07:22.125Z,17.61
2022-10-11T10:09:49.643Z,17.43
2022-10-11T10:12:22.258Z,17.40
2022-10-11T10:15:17.705Z,18.15
2022-10-11T10:17:51.858Z,17.54
2022-10-11T10:20:24.216Z,18.18
2022-10-11T10:22:51.732Z,17.92
2022-10-11T10:25:36.641Z,18.31
2022-10-11T10:28:19.249Z,17.64
2022-10-11T10:30:54.521Z,18.01
2022-10-11T10:33:27.400Z,18.27
2022-10-11T10:35:56.864Z,18.19
2022-10-11T10:38:35.235Z,18.48
2022-10-11T10:41:04.409Z,18.53
2022-10-11T10:43:36.209Z,18.38
2022-10-11T10:46:11.395Z,18.18
2022-10-11T10:49:28.369Z,18.32
2022-10-11T10:51:41.660Z,18.09
2022-10-11T10:54:24.671Z,18.08
2022-10-11T10:56:55.779Z,18.68
2022-10-11T10:59:49.562Z,18.17
2022-10-11T11:02:40.384Z,17.90
2022-10-11T11:05:31.685Z,17.76
2022-10-11T11:08:01.028Z,17.33
2022-10-11T11:10:36.611Z,17.71
2022-10-11T11:13:35.687Z,17.77
2022-10-11T11:16:26.547Z,17.63
2022-10-11T11:19:05.480Z,17.96
2022-10-11T11:21:48.038Z,17.71
2022-10-11T11:24:51.437Z,17.75
2022-10-11T11:27:46.691Z,17.55
2022-10-11T11:30:20.239Z,17.59
2022-10-11T11:33:03.880Z,17.68
2022-10-11T11:35:42.715Z,18.49
2022-10-11T11:38:27.148Z,17.80
2022-10-11T11:40:59.118Z,17.95
2022-10-11T11:43:36.835Z,18.05
2022-10-11T11:46:11.704Z,17.97
2022-10-11T11:48:39.062Z,17.43
2022-10-11T11:51:13.111Z,17.92
2022-10-11T11:53:49.897Z,18.64
2022-10-11T11:56:41.431Z,18.68
2022-10-11T11:59:20.188Z,18.01
2022-10-11T12:01:59.810Z,17.72
2022-10-11T12:04:30.749Z,18.24
2022-10-11T12:07:15.902Z,18.36
2022-10-11T12:09:46.558Z,18.36
2022-10-11T12:12:36.203Z,18.12
2022-10-11T12:15:26.104Z,18.78
2022-10-11T12:17:58.569Z,18.72
2022-10-11T12:20:40.691Z,18.58
2022-10-11T12:23:28.380Z,18.56
2022-10-11T12:26:19.267Z,17.98
2022-10-11T12:28:59.414Z,18.25
2022-10-11T12:31:35.640Z,17.97
2022-10-11T12:34:01.966Z,18.85
2022-10-11T12:36:29.581Z,18.26
2022-10-11T12:39:20.778Z,18.36
2022-10-11T12:41:47.049Z,18.85
2022-10-11T12:44:26.704Z,19.04
2022-10-11T12:46:59.254Z,18.63
2022-10-11T12:49:37.681Z,18.82
2022-10-11T12:52:28.353Z,18.45
2022-10-11T12:55:25.073Z,18.30
2022-10-11T12:58:28.635Z,18.71
2022-10-11T13:00:56.123Z,18.90
2022-10-11T13:03:32.495Z,18.83
2022-10-11T13:06:01.900Z,18.77
2022-10-11T13:08:36.473Z,18.58
2022-10-11T13:11:06.444Z,18.39
2022-10-11T13:13:44.315Z,18.21
2022-10-11T13:16:48.318Z,17.99
2022-10-11T13:19:15.105Z,17.40
2022-10-11T13:21:42.245Z,17.36
2022-10-11T13:24:14.365Z,17.11
2022-10-11T13:26:43.002Z,17.20
2022-10-11T13:29:23.941Z,17.05
2022-10-11T13:31:50.352Z,16.39
2022-10-11T13:34:22.380Z,16.11
2022-10-11T13:36:56.907Z,16.06
2022-10-11T13:39:35.026Z,16.06
2022-10-11T13:42:06.132Z,15.92
2022-10-11T13:44:33.837Z,16.16
2022-10-11T13:47:00.282Z,16.54
2022-10-11T13:49:37.209Z,16.55
2022-10-11T13:52:21.962Z,16.38
2022-10-11T13:55:00.732Z,16.18
2022-10-11T13:57:43.670Z,16.34
2022-10-11T14:00:22.332Z,16.19
2022-10-11T14:03:01.480Z,16.14
2022-10-11T14:05:35.402Z,16.17
2022-10-11T14:08:05.614Z,16.11
2022-10-11T14:10:32.805Z,16.22
2022-10-11T14:13:02.329Z,16.21
2022-10-11T14:15:38.377Z,15.98
2022-10-11T14:18:33.493Z,16.17
2022-10-11T14:21:27.930Z,15.89
2022-10-11T14:23:57.902Z,15.89
2022-10-11T14:26:25.740Z,16.08
2022-10-11T14:28:57.927Z,16.10
2022-10-11T14:31:25.026Z,16.20
2022-10-11T14:33:52.267Z,16.09
2022-10-11T14:36:18.633Z,16.14
2022-10-11T14:38:44.997Z,16.21
2022-10-11T14:41:11.380Z,15.97
2022-10-11T14:43:37.751Z,15.99
2022-10-11T14:46:05.284Z,15.87
2022-10-11T14:48:53.899Z,15.83
2022-10-11T14:51:25.149Z,15.44
2022-10-11T14:53:51.596Z,15.52
2022-10-11T14:56:21.520Z,15.25
2022-10-11T14:58:48.720Z,15.20
2022-10-11T15:01:16.336Z,15.03
2022-10-11T15:03:43.631Z,15.06
2022-10-11T15:06:17.711Z,14.91
2022-10-11T15:08:44.333Z,14.95
2022-10-11T15:11:12.646Z,14.92
2022-10-11T15:13:39.023Z,14.79
2022-10-11T15:16:05.955Z,14.86
2022-10-11T15:18:32.579Z,14.89
2022-10-11T15:21:00.448Z,14.81
2022-10-11T15:23:26.794Z,14.88
2022-10-11T15:25:53.347Z,14.85
2022-10-11T15:28:31.344Z,14.78
2022-10-11T15:30:58.644Z,14.92
2022-10-11T15:33:25.351Z,14.85
2022-10-11T15:35:52.427Z,15.08
2022-10-11T15:38:24.000Z,15.14
2022-10-11T15:40:51.643Z,15.30
2022-10-11T15:43:23.511Z,15.19
2022-10-11T15:45:51.178Z,15.04
2022-10-11T15:48:19.142Z,14.83
2022-10-11T15:50:45.879Z,14.74
2022-10-11T15:53:19.383Z,14.81
2022-10-11T15:55:51.703Z,14.67
2022-10-11T15:58:20.660Z,14.59
2022-10-11T16:00:48.573Z,14.66
2022-10-11T16:03:16.640Z,14.67
2022-10-11T16:05:43.926Z,14.42
2022-10-11T16:08:11.023Z,14.51
2022-10-11T16:10:38.528Z,14.27
2022-10-11T16:13:05.664Z,14.19
2022-10-11T16:15:32.035Z,14.11
2022-10-11T16:17:58.386Z,14.11
2022-10-11T16:20:25.744Z,14.15
2022-10-11T16:22:53.973Z,14.03
2022-10-11T16:25:21.195Z,13.96
2022-10-11T16:27:47.680Z,13.85
2022-10-11T16:30:15.380Z,13.74
2022-10-11T16:32:42.482Z,13.61
2022-10-11T16:35:10.896Z,13.42
2022-10-11T16:37:37.343Z,13.36
2022-10-11T16:40:05.478Z,13.25
2022-10-11T16:42:32.260Z,13.09
2022-10-11T16:44:59.075Z,13.08
2022-10-11T16:47:25.493Z,13.01
2022-10-11T16:49:51.922Z,12.88
2022-10-11T16:52:18.324Z,12.83
2022-10-11T16:54:49.288Z,12.73
2022-10-11T16:57:17.999Z,12.67
2022-10-11T16:59:44.532Z,12.40
2022-10-11T17:02:19.765Z,12.52
2022-10-11T17:04:46.430Z,12.48
2022-10-11T17:07:13.496Z,12.47
2022-10-11T17:09:43.910Z,12.40
2022-10-11T17:12:12.966Z,12.39
2022-10-11T17:14:40.863Z,12.34
2022-10-11T17:17:09.005Z,12.37
2022-10-11T17:19:39.222Z,12.37
2022-10-11T17:22:10.579Z,12.32
2022-10-11T17:24:38.079Z,12.28
2022-10-11T17:27:05.662Z,12.29
2022-10-11T17:29:32.429Z,12.28
2022-10-11T17:31:59.459Z,12.26
2022-10-11T17:34:25.854Z,12.28
2022-10-11T17:36:52.332Z,12.27
2022-10-11T17:39:22.291Z,12.36
2022-10-11T17:41:49.424Z,12.28
2022-10-11T17:44:17.973Z,12.30
2022-10-11T17:46:44.676Z,12.16
2022-10-11T17:49:12.275Z,12.30
2022-10-11T17:51:39.118Z,12.29
2022-10-11T17:54:06.161Z,12.25
2022-10-11T17:56:37.654Z,12.23
2022-10-11T17:59:04.832Z,12.02
2022-10-11T18:01:31.348Z,12.01
2022-10-11T18:04:00.061Z,12.15
2022-10-11T18:06:28.880Z,12.13
2022-10-11T18:08:57.113Z,11.95
2022-10-11T18:11:23.863Z,11.96
2022-10-11T18:13:52.376Z,11.98
2022-10-11T18:16:22.348Z,12.08
2022-10-11T18:18:48.942Z,12.06
2022-10-11T18:21:16.121Z,11.99
2022-10-11T18:23:42.483Z,11.81
2022-10-11T18:26:13.946Z,11.78
2022-10-11T18:28:41.230Z,11.77
2022-10-11T18:31:14.312Z,11.35
2022-10-11T18:33:41.779Z,11.36
2022-10-11T18:36:09.330Z,11.47
2022-10-11T18:38:37.871Z,11.42
2022-10-11T18:41:06.364Z,11.35
2022-10-11T18:43:33.463Z,11.28
2022-10-11T18:46:12.276Z,11.27
2022-10-11T18:48:43.676Z,11.10
2022-10-11T18:51:16.148Z,11.12
2022-10-11T18:53:42.514Z,11.07
2022-10-11T18:56:10.526Z,11.04
2022-10-11T18:58:38.231Z,11.03
2022-10-11T19:01:06.963Z,10.99
2022-10-11T19:03:35.261Z,10.90
2022-10-11T19:06:04.537Z,10.88
2022-10-11T19:08:31.828Z,10.79
2022-10-11T19:11:06.052Z,10.73
2022-10-11T19:13:32.918Z,10.70
2022-10-11T19:16:04.558Z,10.67
2022-10-11T19:18:31.185Z,10.71
2022-10-11T19:21:01.326Z,10.69
2022-10-11T19:23:30.942Z,10.54
2022-10-11T19:25:57.684Z,10.45
2022-10-11T19:28:24.193Z,10.39
2022-10-11T19:30:50.792Z,10.31
2022-10-11T19:33:17.149Z,10.18
2022-10-11T19:35:54.228Z,10.14
2022-10-11T19:40:52.057Z,10.01
2022-10-11T19:43:18.455Z,9.90
2022-10-11T19:45:44.871Z,9.86
2022-10-11T19:48:11.689Z,9.81
2022-10-11T19:50:38.167Z,9.74
2022-10-11T19:53:04.958Z,9.66
2022-10-11T19:55:34.031Z,9.67
2022-10-11T19:58:04.530Z,9.63
2022-10-11T20:00:33.736Z,9.27
2022-10-11T20:03:01.177Z,9.52
2022-10-11T20:05:27.514Z,9.45
2022-10-11T20:07:53.925Z,9.43
2022-10-11T20:10:20.265Z,9.33
2022-10-11T20:12:46.701Z,9.24
2022-10-11T20:15:13.046Z,9.16
2022-10-11T20:17:48.235Z,9.10
2022-10-11T20:20:19.098Z,8.85
2022-10-11T20:22:45.455Z,9.02
2022-10-11T20:25:11.960Z,8.89
2022-10-11T20:27:38.438Z,8.81
2022-10-11T20:30:05.338Z,8.77
2022-10-11T20:32:31.672Z,8.69
2022-10-11T20:34:58.049Z,8.65
2022-10-11T20:37:24.377Z,8.63
2022-10-11T20:39:50.968Z,8.60
2022-10-11T20:42:17.321Z,8.53
2022-10-11T20:44:44.456Z,8.56
2022-10-11T20:47:10.878Z,8.47
2022-10-11T20:49:37.246Z,8.45
2022-10-11T20:52:03.599Z,8.65
2022-10-11T20:54:30.557Z,8.55
2022-10-11T20:56:57.578Z,8.66
2022-10-11T20:59:24.093Z,8.57
2022-10-11T21:01:50.475Z,8.47
2022-10-11T21:04:19.487Z,8.40
2022-10-11T21:06:47.806Z,8.42
2022-10-11T21:09:16.735Z,8.26
2022-10-11T21:11:43.439Z,8.21
2022-10-11T21:14:09.828Z,8.11
2022-10-11T21:16:36.563Z,7.94
2022-10-11T21:19:03.023Z,7.92
2022-10-11T21:21:29.622Z,7.99
2022-10-11T21:23:57.905Z,7.89
2022-10-11T21:26:24.882Z,8.03
2022-10-11T21:28:51.323Z,7.98
2022-10-11T21:31:19.675Z,7.98
2022-10-11T21:33:46.219Z,7.78
2022-10-11T21:36:21.364Z,7.75
2022-10-11T21:38:49.593Z,7.84
2022-10-11T21:41:19.043Z,7.72
2022-10-11T21:43:45.817Z,7.67
2022-10-11T21:46:15.862Z,7.62
2022-10-11T21:48:42.391Z,7.67
2022-10-11T21:53:46.644Z,7.51
2022-10-11T21:56:12.991Z,7.57
2022-10-11T21:58:39.391Z,7.54
2022-10-11T22:01:05.977Z,7.50
2022-10-11T22:03:32.386Z,7.33
2022-10-11T22:06:02.454Z,7.45
2022-10-11T22:08:29.637Z,7.45
2022-10-11T22:10:58.116Z,7.39
2022-10-11T22:13:25.912Z,7.34
2022-10-11T22:15:52.398Z,6.91
2022-10-11T22:18:19.266Z,7.14
2022-10-11T22:20:45.600Z,7.13
2022-10-11T22:23:12.022Z,7.22
2022-10-11T22:25:39.092Z,7.30
2022-10-11T22:28:05.904Z,7.28
2022-10-11T22:30:32.311Z,7.11
2022-10-11T22:32:58.736Z,7.11
2022-10-11T22:35:25.119Z,7.15
2022-10-11T22:37:51.954Z,7.03
2022-10-11T22:40:19.719Z,7.01
2022-10-11T22:42:46.108Z,6.98
2022-10-11T22:45:12.564Z,6.98
2022-10-11T22:47:39.093Z,6.93
2022-10-11T22:50:05.886Z,7.05
2022-10-11T22:52:32.234Z,6.96
2022-10-11T22:54:58.580Z,7.00
2022-10-11T22:57:25.133Z,6.99
2022-10-11T22:59:51.545Z,6.98
2022-10-11T23:02:17.930Z,6.92
2022-10-11T23:04:44.266Z,6.92
2022-10-11T23:07:10.640Z,6.82
2022-10-11T23:09:37.015Z,6.85
2022-10-11T23:12:03.516Z,6.75
2022-10-11T23:14:29.871Z,6.81
2022-10-11T23:16:56.201Z,6.93
2022-10-11T23:19:22.536Z,6.81
2022-10-11T23:21:49.260Z,6.86
2022-10-11T23:24:15.642Z,6.82
2022-10-11T23:26:41.967Z,6.81
2022-10-11T23:29:08.370Z,6.71
2022-10-11T23:31:34.707Z,6.69
2022-10-11T23:34:01.035Z,6.68
2022-10-11T23:36:27.448Z,6.55
2022-10-11T23:38:56.495Z,6.53
2022-10-11T23:41:25.286Z,6.56
2022-10-11T23:43:52.114Z,6.34
2022-10-11T23:46:18.455Z,6.57
2022-10-11T23:48:45.063Z,6.60
2022-10-11T23:51:11.799Z,6.34
2022-10-11T23:53:38.203Z,6.54
2022-10-11T23:56:05.673Z,6.54
2022-10-11T23:58:32.124Z,6.46
